Time;durP1;ratioP1;P1;durP2;ratioP2;P2;SDS_P1;SDS_P2;PMS_P1;PMS_P2;Temp;Humidity;BMP_temperature;BMP_pressure;BME280_temperature;BME280_humidity;BME280_pressure;Samples;Min_cycle;Max_cycle;Signal;HPM_P1;HPM_P2
2021/08/07 00:01:33;;;;;;;8.00;4.10;;;;;;;;;;10481710;28;20244;-71
2021/08/07 00:06:36;;;;;;;8.50;4.10;;;;;;;;;;10475485;28;20200;-71
2021/08/07 00:11:38;;;;;;;8.90;4.40;;;;;;;;;;10481362;28;20525;-71
2021/08/07 00:16:42;;;;;;;9.57;4.53;;;;;;;;;;10478627;28;20229;-72
2021/08/07 00:21:45;;;;;;;9.77;4.40;;;;;;;;;;10479633;28;20960;-70
2021/08/07 00:26:47;;;;;;;8.40;4.23;;;;;;;;;;10476545;28;20719;-71
2021/08/07 00:31:51;;;;;;;9.20;4.57;;;;;;;;;;10477835;28;20229;-71
2021/08/07 00:36:53;;;;;;;8.63;4.47;;;;;;;;;;10475448;28;20324;-72
2021/08/07 00:41:56;;;;;;;8.87;4.77;;;;;;;;;;10484017;28;20224;-71
2021/08/07 00:47:00;;;;;;;9.33;4.20;;;;;;;;;;10488991;28;20219;-72
2021/08/07 00:52:03;;;;;;;10.00;4.50;;;;;;;;;;10473724;28;20297;-71
2021/08/07 00:57:05;;;;;;;10.23;4.50;;;;;;;;;;10468042;28;20695;-71
2021/08/07 01:02:11;;;;;;;8.57;4.43;;;;;;;;;;10462642;28;20176;-71
2021/08/07 01:07:21;;;;;;;9.73;4.13;;;;;;;;;;10471757;28;20727;-71
2021/08/07 01:12:25;;;;;;;11.00;5.23;;;;;;;;;;10475208;28;20307;-71
2021/08/07 01:17:31;;;;;;;9.30;4.00;;;;;;;;;;10481827;28;20232;-71
2021/08/07 01:22:59;;;;;;;9.60;3.93;;;;;;;;;;10484422;28;20203;-72
2021/08/07 01:28:03;;;;;;;8.60;4.03;;;;;;;;;;10469786;28;20240;-72
2021/08/07 01:33:06;;;;;;;7.60;3.73;;;;;;;;;;10481862;28;20258;-71
2021/08/07 01:38:10;;;;;;;9.07;4.53;;;;;;;;;;10470298;28;20218;-71
2021/08/07 01:43:14;;;;;;;7.03;3.60;;;;;;;;;;10478556;28;20187;-70
2021/08/07 01:48:19;;;;;;;9.00;3.70;;;;;;;;;;10476665;28;20207;-71
2021/08/07 01:53:25;;;;;;;8.50;3.43;;;;;;;;;;10477362;28;20216;-72
2021/08/07 01:58:30;;;;;;;6.87;3.00;;;;;;;;;;10476920;28;20220;-71
2021/08/07 02:03:33;;;;;;;7.33;2.90;;;;;;;;;;10475141;28;20280;-71
2021/08/07 02:08:36;;;;;;;6.93;3.30;;;;;;;;;;10461959;28;20286;-71
2021/08/07 02:13:40;;;;;;;7.03;3.27;;;;;;;;;;10466819;28;20220;-72
2021/08/07 02:18:44;;;;;;;7.30;2.93;;;;;;;;;;10484323;28;20235;-70
2021/08/07 02:23:47;;;;;;;6.63;2.93;;;;;;;;;;10461498;28;20192;-70
2021/08/07 02:28:51;;;;;;;6.17;3.20;;;;;;;;;;10471182;28;20213;-69
2021/08/07 02:33:55;;;;;;;6.23;3.00;;;;;;;;;;10465473;28;20876;-71
2021/08/07 02:38:58;;;;;;;7.53;3.43;;;;;;;;;;10469325;28;20659;-70
2021/08/07 02:44:02;;;;;;;5.83;3.00;;;;;;;;;;10469255;28;20192;-69
2021/08/07 02:49:05;;;;;;;6.73;3.30;;;;;;;;;;10475887;28;20304;-71
2021/08/07 02:54:08;;;;;;;7.90;3.30;;;;;;;;;;10478774;28;20208;-70
2021/08/07 02:59:12;;;;;;;8.73;3.10;;;;;;;;;;10484005;28;20558;-71
2021/08/07 03:04:17;;;;;;;7.53;3.10;;;;;;;;;;10479143;28;20188;-73
2021/08/07 03:09:19;;;;;;;5.93;3.10;;;;;;;;;;10478291;28;20308;-72
2021/08/07 03:14:23;;;;;;;4.60;2.60;;;;;;;;;;10476635;28;20212;-71
2021/08/07 03:19:26;;;;;;;4.67;2.63;;;;;;;;;;10477273;28;20308;-72
2021/08/07 03:24:29;;;;;;;7.33;2.97;;;;;;;;;;10479368;28;20204;-72
2021/08/07 03:29:32;;;;;;;6.13;2.87;;;;;;;;;;10474709;28;20685;-72
2021/08/07 03:34:35;;;;;;;8.43;3.10;;;;;;;;;;10474337;28;20278;-72
2021/08/07 03:39:38;;;;;;;7.90;3.03;;;;;;;;;;10482051;28;20248;-73
2021/08/07 03:44:41;;;;;;;6.13;3.20;;;;;;;;;;10474966;28;20276;-72
2021/08/07 03:49:44;;;;;;;6.60;2.97;;;;;;;;;;10483148;28;20244;-72
2021/08/07 03:54:46;;;;;;;6.23;2.90;;;;;;;;;;10472525;28;20231;-72
2021/08/07 03:59:50;;;;;;;7.27;3.00;;;;;;;;;;10484972;28;20701;-73
2021/08/07 04:04:53;;;;;;;6.53;3.20;;;;;;;;;;10487288;28;20218;-72
2021/08/07 04:09:55;;;;;;;7.03;2.87;;;;;;;;;;10481124;28;20209;-73
2021/08/07 04:14:59;;;;;;;6.70;2.80;;;;;;;;;;10486941;28;20213;-72
2021/08/07 04:20:22;;;;;;;5.80;2.70;;;;;;;;;;10478014;28;20231;-72
2021/08/07 04:25:24;;;;;;;7.17;2.63;;;;;;;;;;10477302;28;20265;-73
2021/08/07 04:30:28;;;;;;;4.87;2.80;;;;;;;;;;10481803;28;20594;-72
2021/08/07 04:35:30;;;;;;;7.07;2.90;;;;;;;;;;10470248;28;20213;-72
2021/08/07 04:40:33;;;;;;;6.70;2.67;;;;;;;;;;10477656;28;20758;-71
2021/08/07 04:45:37;;;;;;;5.93;3.03;;;;;;;;;;10492981;28;20517;-73
2021/08/07 04:50:40;;;;;;;6.17;2.70;;;;;;;;;;10468186;28;20886;-72
2021/08/07 04:55:43;;;;;;;7.43;3.00;;;;;;;;;;10464772;28;20205;-71
2021/08/07 05:00:47;;;;;;;5.70;3.00;;;;;;;;;;10480519;28;20292;-70
2021/08/07 05:05:50;;;;;;;5.43;2.57;;;;;;;;;;10466923;28;20263;-69
2021/08/07 05:10:53;;;;;;;6.00;2.80;;;;;;;;;;10480606;28;20237;-72
2021/08/07 05:15:56;;;;;;;5.13;2.50;;;;;;;;;;10473197;28;20205;-72
2021/08/07 05:20:59;;;;;;;6.10;2.43;;;;;;;;;;10480886;28;20218;-70
2021/08/07 05:26:02;;;;;;;5.10;2.60;;;;;;;;;;10471913;28;20648;-71
2021/08/07 05:31:06;;;;;;;5.43;2.83;;;;;;;;;;10482567;28;20553;-71
2021/08/07 05:36:09;;;;;;;5.77;2.60;;;;;;;;;;10487165;28;20217;-70
2021/08/07 05:41:12;;;;;;;6.10;3.00;;;;;;;;;;10485144;28;20205;-72
2021/08/07 05:46:16;;;;;;;5.57;2.60;;;;;;;;;;10480886;28;20181;-71
2021/08/07 05:51:18;;;;;;;5.80;2.80;;;;;;;;;;10480162;28;20553;-72
2021/08/07 05:56:21;;;;;;;5.70;3.03;;;;;;;;;;10475668;28;20244;-72
2021/08/07 06:01:25;;;;;;;5.53;2.63;;;;;;;;;;10477537;28;20235;-70
2021/08/07 06:06:27;;;;;;;5.37;2.77;;;;;;;;;;10477237;28;20322;-72
2021/08/07 06:11:30;;;;;;;5.43;2.93;;;;;;;;;;10484649;28;20269;-72
2021/08/07 06:16:34;;;;;;;5.23;2.50;;;;;;;;;;10482002;28;20208;-72
2021/08/07 06:21:37;;;;;;;5.67;2.67;;;;;;;;;;10485936;28;20262;-71
2021/08/07 06:26:39;;;;;;;6.73;2.90;;;;;;;;;;10475983;28;20716;-72
2021/08/07 06:31:43;;;;;;;8.47;2.97;;;;;;;;;;10479178;28;20196;-72
2021/08/07 06:36:46;;;;;;;5.40;2.40;;;;;;;;;;10485178;28;20218;-72
2021/08/07 06:41:48;;;;;;;6.80;2.80;;;;;;;;;;10483276;28;20195;-72
2021/08/07 06:46:52;;;;;;;5.60;2.60;;;;;;;;;;10481460;28;20706;-72
2021/08/07 06:51:54;;;;;;;4.67;2.50;;;;;;;;;;10480079;28;20196;-72
2021/08/07 06:56:57;;;;;;;6.27;2.37;;;;;;;;;;10478117;28;20235;-73
2021/08/07 07:02:01;;;;;;;5.47;2.70;;;;;;;;;;10480041;28;20604;-71
2021/08/07 07:07:04;;;;;;;6.07;2.57;;;;;;;;;;10474095;28;20208;-70
2021/08/07 07:12:07;;;;;;;4.63;2.20;;;;;;;;;;10478610;28;20557;-71
2021/08/07 07:17:11;;;;;;;4.63;2.30;;;;;;;;;;10476486;28;20242;-70
2021/08/07 07:22:13;;;;;;;9.53;3.07;;;;;;;;;;10478883;28;20200;-71
2021/08/07 07:27:16;;;;;;;6.07;2.20;;;;;;;;;;10475632;28;20281;-69
2021/08/07 07:32:20;;;;;;;5.15;2.10;;;;;;;;;;10479811;28;20220;-72
2021/08/07 07:37:22;;;;;;;5.75;2.10;;;;;;;;;;10479072;28;20228;-72
2021/08/07 07:42:25;;;;;;;4.57;2.05;;;;;;;;;;10486142;28;20634;-71
2021/08/07 07:47:30;;;;;;;3.78;2.00;;;;;;;;;;10473113;28;20204;-70
2021/08/07 07:52:32;;;;;;;5.93;2.50;;;;;;;;;;10483808;28;20191;-72
2021/08/07 07:57:35;;;;;;;4.05;2.20;;;;;;;;;;10481834;28;20230;-71
2021/08/07 08:02:39;;;;;;;4.18;1.98;;;;;;;;;;10483898;28;20644;-70
2021/08/07 08:07:42;;;;;;;5.18;2.40;;;;;;;;;;10485872;28;20232;-72
2021/08/07 08:12:45;;;;;;;4.53;1.95;;;;;;;;;;10485962;28;20275;-72
2021/08/07 08:17:49;;;;;;;4.25;2.10;;;;;;;;;;10487075;28;20267;-70
2021/08/07 08:22:52;;;;;;;4.88;2.15;;;;;;;;;;10486022;28;20188;-72
2021/08/07 08:27:55;;;;;;;3.15;2.00;;;;;;;;;;10484577;28;20216;-71
2021/08/07 08:32:59;;;;;;;3.55;2.03;;;;;;;;;;10484215;28;20216;-74
2021/08/07 08:38:02;;;;;;;4.70;2.35;;;;;;;;;;10486691;28;20224;-72
2021/08/07 08:43:04;;;;;;;4.75;2.17;;;;;;;;;;10476102;28;20204;-71
2021/08/07 08:48:08;;;;;;;2.97;1.88;;;;;;;;;;10474492;28;20838;-70
2021/08/07 08:53:11;;;;;;;3.15;1.90;;;;;;;;;;10485836;28;20224;-71
2021/08/07 08:58:15;;;;;;;3.17;1.90;;;;;;;;;;10484286;28;20220;-72
2021/08/07 09:03:19;;;;;;;3.78;1.83;;;;;;;;;;10480788;28;20579;-71
2021/08/07 09:08:22;;;;;;;4.72;2.83;;;;;;;;;;10477902;28;20246;-72
2021/08/07 09:13:24;;;;;;;4.15;1.80;;;;;;;;;;10479257;28;20254;-72
2021/08/07 09:18:28;;;;;;;3.22;1.90;;;;;;;;;;10483601;28;20295;-71
2021/08/07 09:23:32;;;;;;;3.08;1.85;;;;;;;;;;10483482;28;20645;-72
2021/08/07 09:28:42;;;;;;;5.22;2.17;;;;;;;;;;10481528;28;20288;-70
2021/08/07 09:33:46;;;;;;;3.38;1.80;;;;;;;;;;10484026;28;20188;-71
2021/08/07 09:38:49;;;;;;;2.55;1.77;;;;;;;;;;10483229;28;20227;-72
2021/08/07 09:43:52;;;;;;;3.85;2.10;;;;;;;;;;10484611;28;20641;-71
2021/08/07 09:48:56;;;;;;;4.60;1.90;;;;;;;;;;10481479;28;20219;-72
2021/08/07 09:54:01;;;;;;;3.58;1.90;;;;;;;;;;10484810;28;20691;-72
2021/08/07 09:59:05;;;;;;;3.05;2.00;;;;;;;;;;10486057;28;20230;-72
2021/08/07 10:04:10;;;;;;;4.00;1.85;;;;;;;;;;10482491;28;20640;-71
2021/08/07 10:09:13;;;;;;;5.38;2.00;;;;;;;;;;10481708;28;20217;-72
2021/08/07 10:14:16;;;;;;;3.80;1.90;;;;;;;;;;10488187;28;20664;-72
2021/08/07 10:19:20;;;;;;;3.63;1.85;;;;;;;;;;10480953;28;20302;-70
2021/08/07 10:24:23;;;;;;;4.45;1.80;;;;;;;;;;10469288;28;20261;-70
2021/08/07 10:29:29;;;;;;;4.45;2.15;;;;;;;;;;10475386;28;20241;-69
2021/08/07 10:34:35;;;;;;;3.45;1.67;;;;;;;;;;10464771;28;20244;-68
2021/08/07 10:39:38;;;;;;;3.90;2.00;;;;;;;;;;10464864;28;20247;-68
2021/08/07 10:44:43;;;;;;;3.92;2.10;;;;;;;;;;10463005;28;20250;-69
2021/08/07 10:49:47;;;;;;;4.57;1.85;;;;;;;;;;10471164;28;20261;-69
2021/08/07 10:54:49;;;;;;;3.83;2.20;;;;;;;;;;10471791;28;20304;-69
2021/08/07 10:59:52;;;;;;;4.38;2.20;;;;;;;;;;10472735;28;20212;-69
2021/08/07 11:04:56;;;;;;;3.33;2.20;;;;;;;;;;10465752;28;20193;-69
2021/08/07 11:10:02;;;;;;;3.97;2.15;;;;;;;;;;10476842;28;20763;-69
2021/08/07 11:15:09;;;;;;;2.00;1.80;;;;;;;;;;10486759;28;20196;-68
2021/08/07 11:20:35;;;;;;;3.63;1.95;;;;;;;;;;10482059;28;20262;-69
2021/08/07 11:25:47;;;;;;;4.38;2.28;;;;;;;;;;10481784;28;20402;-69
2021/08/07 11:31:10;;;;;;;4.10;1.88;;;;;;;;;;10479699;28;20212;-70
2021/08/07 11:36:15;;;;;;;4.25;2.20;;;;;;;;;;10485628;28;20211;-69
2021/08/07 11:41:28;;;;;;;4.00;2.28;;;;;;;;;;10483028;28;20579;-70
2021/08/07 11:46:40;;;;;;;3.45;2.10;;;;;;;;;;10482941;28;20620;-70
2021/08/07 11:51:44;;;;;;;4.85;2.30;;;;;;;;;;10476306;28;20541;-68
2021/08/07 11:56:47;;;;;;;3.53;2.10;;;;;;;;;;10483000;28;20292;-68
2021/08/07 12:01:49;;;;;;;2.72;2.13;;;;;;;;;;10480351;28;20235;-68
2021/08/07 12:06:54;;;;;;;3.55;2.10;;;;;;;;;;10475816;28;20205;-69
2021/08/07 12:12:01;;;;;;;3.80;2.10;;;;;;;;;;10484063;28;20197;-70
2021/08/07 12:17:07;;;;;;;3.83;2.50;;;;;;;;;;10478642;28;20248;-68
2021/08/07 12:22:11;;;;;;;4.95;2.40;;;;;;;;;;10483990;28;20208;-69
2021/08/07 12:27:13;;;;;;;3.58;2.30;;;;;;;;;;10475911;28;20262;-70
2021/08/07 12:32:20;;;;;;;4.75;2.40;;;;;;;;;;10474156;28;20216;-69
2021/08/07 12:37:24;;;;;;;6.63;2.28;;;;;;;;;;10480649;28;20256;-68
2021/08/07 12:42:27;;;;;;;3.55;2.38;;;;;;;;;;10480400;28;20656;-69
2021/08/07 12:47:31;;;;;;;6.38;4.32;;;;;;;;;;10478032;28;20660;-69
2021/08/07 12:52:48;;;;;;;3.63;2.40;;;;;;;;;;10476985;28;20196;-71
2021/08/07 12:58:08;;;;;;;2.90;2.20;;;;;;;;;;10466392;28;20244;-69
2021/08/07 13:03:11;;;;;;;5.18;2.45;;;;;;;;;;10475921;28;20288;-71
2021/08/07 13:08:26;;;;;;;5.43;2.58;;;;;;;;;;10469842;28;20367;-70
2021/08/07 13:13:38;;;;;;;4.40;2.05;;;;;;;;;;10467553;28;20565;-69
2021/08/07 13:18:41;;;;;;;6.60;3.03;;;;;;;;;;10476995;28;20737;-69
2021/08/07 13:23:45;;;;;;;4.78;2.15;;;;;;;;;;10477799;28;20275;-68
2021/08/07 13:28:47;;;;;;;4.65;2.30;;;;;;;;;;10457132;28;20235;-69
2021/08/07 13:33:50;;;;;;;3.63;2.20;;;;;;;;;;10472762;28;20205;-69
2021/08/07 13:38:54;;;;;;;3.30;2.10;;;;;;;;;;10472078;28;20677;-70
2021/08/07 13:43:57;;;;;;;4.65;2.03;;;;;;;;;;10471280;28;20284;-70
2021/08/07 13:48:59;;;;;;;4.13;2.10;;;;;;;;;;10459111;28;20561;-70
2021/08/07 13:54:06;;;;;;;3.88;2.05;;;;;;;;;;10473704;28;20192;-69
2021/08/07 13:59:08;;;;;;;6.43;3.88;;;;;;;;;;10473625;28;20403;-69
2021/08/07 14:04:11;;;;;;;4.45;2.17;;;;;;;;;;10470142;28;20199;-68
2021/08/07 14:09:15;;;;;;;3.35;2.00;;;;;;;;;;10473625;28;20212;-69
2021/08/07 14:14:17;;;;;;;5.05;1.90;;;;;;;;;;10470309;28;20254;-70
2021/08/07 14:19:20;;;;;;;3.58;2.10;;;;;;;;;;10479105;28;20224;-70
2021/08/07 14:24:25;;;;;;;5.25;2.03;;;;;;;;;;10485508;28;20195;-70
2021/08/07 14:29:27;;;;;;;3.17;2.15;;;;;;;;;;10479248;28;20647;-70
2021/08/07 14:34:30;;;;;;;4.07;2.00;;;;;;;;;;10475233;28;20648;-70
2021/08/07 14:39:35;;;;;;;3.85;2.10;;;;;;;;;;10465174;28;20216;-70
2021/08/07 14:44:37;;;;;;;3.95;1.92;;;;;;;;;;10437594;28;20633;-70
2021/08/07 14:49:40;;;;;;;3.53;2.10;;;;;;;;;;10437571;28;20239;-70
2021/08/07 14:54:44;;;;;;;4.90;2.05;;;;;;;;;;10449935;28;23026;-70
2021/08/07 14:59:46;;;;;;;2.53;1.58;;;;;;;;;;10438725;28;20772;-69
2021/08/07 15:04:49;;;;;;;3.25;1.90;;;;;;;;;;10437767;28;20669;-71
2021/08/07 15:09:53;;;;;;;3.85;1.60;;;;;;;;;;10438567;28;20219;-69
2021/08/07 15:14:56;;;;;;;2.10;1.33;;;;;;;;;;10466327;28;20284;-70
2021/08/07 15:19:58;;;;;;;3.35;1.38;;;;;;;;;;10477599;28;20245;-69
2021/08/07 15:25:02;;;;;;;3.67;1.50;;;;;;;;;;10468075;28;20274;-69
2021/08/07 15:30:06;;;;;;;6.60;2.00;;;;;;;;;;10461655;28;20228;-69
2021/08/07 15:35:10;;;;;;;7.07;2.30;;;;;;;;;;10452739;28;20188;-70
2021/08/07 15:40:14;;;;;;;5.32;2.17;;;;;;;;;;10441507;28;20321;-69
2021/08/07 15:45:17;;;;;;;4.18;2.05;;;;;;;;;;10447423;28;20297;-68
2021/08/07 15:50:19;;;;;;;3.47;2.00;;;;;;;;;;10445015;28;20208;-69
2021/08/07 15:55:23;;;;;;;4.00;1.63;;;;;;;;;;10445266;28;20556;-69
2021/08/07 16:00:26;;;;;;;5.47;2.00;;;;;;;;;;10453241;28;20231;-70
2021/08/07 16:05:28;;;;;;;4.47;1.80;;;;;;;;;;10448003;28;20193;-69
2021/08/07 16:10:32;;;;;;;4.77;1.90;;;;;;;;;;10443601;28;20228;-70
2021/08/07 16:15:35;;;;;;;3.97;2.00;;;;;;;;;;10449989;28;20972;-69
2021/08/07 16:20:38;;;;;;;4.23;1.73;;;;;;;;;;10443487;28;20221;-70
2021/08/07 16:25:42;;;;;;;3.27;1.70;;;;;;;;;;10441945;28;20253;-69
2021/08/07 16:30:45;;;;;;;4.63;1.90;;;;;;;;;;10455239;28;20212;-70
2021/08/07 16:35:47;;;;;;;4.70;1.97;;;;;;;;;;10454720;28;20726;-69
2021/08/07 16:40:51;;;;;;;4.20;1.70;;;;;;;;;;10467320;28;20572;-69
2021/08/07 16:45:53;;;;;;;3.13;1.60;;;;;;;;;;10474717;28;20224;-70
2021/08/07 16:50:57;;;;;;;2.97;1.60;;;;;;;;;;10473120;28;20236;-69
2021/08/07 16:56:00;;;;;;;4.10;1.90;;;;;;;;;;10476305;28;20193;-70
2021/08/07 17:01:03;;;;;;;3.60;1.73;;;;;;;;;;10477280;28;20699;-69
2021/08/07 17:06:07;;;;;;;2.77;1.60;;;;;;;;;;10484835;28;20188;-69
2021/08/07 17:11:13;;;;;;;3.70;1.67;;;;;;;;;;10479742;28;20724;-68
2021/08/07 17:16:15;;;;;;;3.27;1.63;;;;;;;;;;10476273;28;20592;-68
2021/08/07 17:21:23;;;;;;;5.50;2.20;;;;;;;;;;10477423;28;20216;-71
2021/08/07 17:26:26;;;;;;;2.90;1.50;;;;;;;;;;10477097;28;20290;-69
2021/08/07 17:31:30;;;;;;;6.00;2.23;;;;;;;;;;10483899;28;20227;-69
2021/08/07 17:36:33;;;;;;;5.43;2.43;;;;;;;;;;10482835;28;20298;-69
2021/08/07 17:41:37;;;;;;;3.77;1.53;;;;;;;;;;10482386;28;20189;-70
2021/08/07 17:46:39;;;;;;;4.77;2.00;;;;;;;;;;10481301;28;20197;-70
2021/08/07 17:51:43;;;;;;;3.30;1.50;;;;;;;;;;10483284;28;20270;-71
2021/08/07 17:56:47;;;;;;;4.47;1.57;;;;;;;;;;10480306;28;20283;-71
2021/08/07 18:01:49;;;;;;;3.27;1.80;;;;;;;;;;10482252;28;20196;-70
2021/08/07 18:06:52;;;;;;;5.03;2.10;;;;;;;;;;10477013;28;20232;-69
2021/08/07 18:11:56;;;;;;;3.87;1.50;;;;;;;;;;10477306;28;20255;-71
2021/08/07 18:17:01;;;;;;;5.40;2.10;;;;;;;;;;10478252;28;20300;-70
2021/08/07 18:22:17;;;;;;;5.33;2.50;;;;;;;;;;10479308;28;20204;-70
2021/08/07 18:27:21;;;;;;;3.47;1.67;;;;;;;;;;10480612;28;20295;-70
2021/08/07 18:32:23;;;;;;;3.53;1.60;;;;;;;;;;10483082;28;20205;-70
2021/08/07 18:37:26;;;;;;;4.70;2.13;;;;;;;;;;10478182;28;20216;-70
2021/08/07 18:42:31;;;;;;;5.03;1.80;;;;;;;;;;10474922;28;20220;-68
2021/08/07 18:47:34;;;;;;;3.13;1.40;;;;;;;;;;10475310;28;20224;-69
2021/08/07 18:52:36;;;;;;;4.17;1.70;;;;;;;;;;10466803;28;20291;-71
2021/08/07 18:57:40;;;;;;;2.30;1.10;;;;;;;;;;10465049;28;20236;-69
2021/08/07 19:02:43;;;;;;;3.73;2.07;;;;;;;;;;10476119;28;20197;-74
2021/08/07 19:07:46;;;;;;;4.70;2.00;;;;;;;;;;10471975;28;20212;-74
2021/08/07 19:12:50;;;;;;;4.10;1.80;;;;;;;;;;10478020;28;20204;-72
2021/08/07 19:17:53;;;;;;;5.17;2.30;;;;;;;;;;10479834;28;20325;-71
2021/08/07 19:22:55;;;;;;;8.13;3.00;;;;;;;;;;10476189;28;20206;-73
2021/08/07 19:27:59;;;;;;;4.73;1.90;;;;;;;;;;10476306;28;20374;-71
2021/08/07 19:33:02;;;;;;;6.07;2.33;;;;;;;;;;10484836;28;20189;-72
2021/08/07 19:38:04;;;;;;;5.23;2.20;;;;;;;;;;10478517;28;20286;-74
2021/08/07 19:43:09;;;;;;;3.37;1.47;;;;;;;;;;10479212;28;20211;-75
2021/08/07 19:48:13;;;;;;;5.07;2.53;;;;;;;;;;10479503;28;20201;-74
2021/08/07 19:53:15;;;;;;;5.00;2.30;;;;;;;;;;10482503;28;20188;-73
2021/08/07 19:58:19;;;;;;;5.30;2.30;;;;;;;;;;10463222;28;20223;-74
2021/08/07 20:03:22;;;;;;;1.87;1.13;;;;;;;;;;10473808;28;20205;-76
2021/08/07 20:08:26;;;;;;;3.63;1.30;;;;;;;;;;10472554;28;20211;-76
2021/08/07 20:13:29;;;;;;;4.50;2.23;;;;;;;;;;10480515;28;20244;-75
2021/08/07 20:18:32;;;;;;;3.17;1.33;;;;;;;;;;10474123;28;20835;-75
2021/08/07 20:23:35;;;;;;;3.67;1.47;;;;;;;;;;10477240;28;20201;-75
2021/08/07 20:28:39;;;;;;;5.07;2.20;;;;;;;;;;10473720;28;20287;-76
2021/08/07 20:33:41;;;;;;;3.57;1.50;;;;;;;;;;10480284;28;20193;-76
2021/08/07 20:38:44;;;;;;;3.03;1.60;;;;;;;;;;10484303;28;20270;-75
2021/08/07 20:43:48;;;;;;;1.57;0.90;;;;;;;;;;10484554;28;20271;-76
2021/08/07 20:48:50;;;;;;;2.80;1.20;;;;;;;;;;10473577;28;20290;-74
2021/08/07 20:53:53;;;;;;;2.70;1.30;;;;;;;;;;10473294;28;20598;-72
2021/08/07 20:58:57;;;;;;;0.97;0.50;;;;;;;;;;10476520;28;20300;-75
2021/08/07 21:03:59;;;;;;;2.83;1.10;;;;;;;;;;10474636;28;20232;-75
2021/08/07 21:09:02;;;;;;;1.87;1.20;;;;;;;;;;10472463;28;20728;-78
2021/08/07 21:14:06;;;;;;;3.43;1.10;;;;;;;;;;10470651;28;20201;-76
2021/08/07 21:19:08;;;;;;;1.70;1.00;;;;;;;;;;10471262;28;20243;-75
2021/08/07 21:24:11;;;;;;;1.87;1.00;;;;;;;;;;10478387;28;20181;-76
2021/08/07 21:29:15;;;;;;;2.90;1.10;;;;;;;;;;10462318;28;20714;-73
2021/08/07 21:34:17;;;;;;;1.63;1.00;;;;;;;;;;10471900;28;20192;-75
2021/08/07 21:39:20;;;;;;;1.13;0.90;;;;;;;;;;10473986;28;20212;-76
2021/08/07 21:44:24;;;;;;;1.30;0.83;;;;;;;;;;10472555;28;20204;-74
2021/08/07 21:49:29;;;;;;;1.23;0.80;;;;;;;;;;10476225;28;20262;-76
2021/08/07 21:54:31;;;;;;;1.77;0.90;;;;;;;;;;10469462;28;20184;-77
2021/08/07 21:59:35;;;;;;;3.10;1.17;;;;;;;;;;10468636;28;20274;-77
2021/08/07 22:04:37;;;;;;;2.23;0.90;;;;;;;;;;10467872;28;20216;-74
2021/08/07 22:09:40;;;;;;;4.67;1.70;;;;;;;;;;10463536;28;21020;-74
2021/08/07 22:14:44;;;;;;;2.63;1.00;;;;;;;;;;10483835;28;20192;-74
2021/08/07 22:19:46;;;;;;;1.00;0.70;;;;;;;;;;10475938;28;20302;-76
2021/08/07 22:24:50;;;;;;;0.93;0.60;;;;;;;;;;10479134;28;20279;-74
2021/08/07 22:29:55;;;;;;;0.97;0.77;;;;;;;;;;10482100;28;20219;-74
2021/08/07 22:34:58;;;;;;;7.10;3.83;;;;;;;;;;10474513;28;20220;-75
2021/08/07 22:40:01;;;;;;;6.97;2.60;;;;;;;;;;10466872;28;20205;-75
2021/08/07 22:45:05;;;;;;;4.33;1.50;;;;;;;;;;10474045;28;20334;-76
2021/08/07 22:50:08;;;;;;;7.43;3.60;;;;;;;;;;10466270;28;20208;-75
2021/08/07 22:55:11;;;;;;;2.63;1.30;;;;;;;;;;10470585;28;20204;-74
2021/08/07 23:00:15;;;;;;;0.90;0.50;;;;;;;;;;10473324;28;20228;-74
2021/08/07 23:05:17;;;;;;;1.13;0.50;;;;;;;;;;10489916;28;20249;-73
2021/08/07 23:10:20;;;;;;;0.80;0.50;;;;;;;;;;10479706;28;20216;-76
2021/08/07 23:15:24;;;;;;;1.30;0.80;;;;;;;;;;10485237;28;20204;-76
2021/08/07 23:20:28;;;;;;;2.47;1.00;;;;;;;;;;10475995;28;20216;-75
2021/08/07 23:25:31;;;;;;;1.73;0.80;;;;;;;;;;10486177;28;20283;-75
2021/08/07 23:30:35;;;;;;;1.37;0.80;;;;;;;;;;10478322;28;20258;-73
2021/08/07 23:35:37;;;;;;;2.27;0.77;;;;;;;;;;10476140;28;20287;-74
2021/08/07 23:40:39;;;;;;;1.30;0.60;;;;;;;;;;10475657;28;20217;-75
2021/08/07 23:45:43;;;;;;;1.10;0.70;;;;;;;;;;10474485;28;20611;-75
2021/08/07 23:50:46;;;;;;;2.03;0.90;;;;;;;;;;10488608;28;20211;-74
2021/08/07 23:55:48;;;;;;;1.10;0.50;;;;;;;;;;10477442;28;20227;-75
